Time;durP1;ratioP1;P1;durP2;ratioP2;P2;SDS_P1;SDS_P2;PMS_P1;PMS_P2;Temp;Humidity;BMP_temperature;BMP_pressure;BME280_temperature;BME280_humidity;BME280_pressure;Samples;Min_cycle;Max_cycle;Signal;HPM_P1;HPM_P2
2021/12/09 00:01:40;;;;;;;42.20;25.00;;;;;;;-0.47;100.00;95299.56;5072645;28;20513;-72
2021/12/09 00:04:11;;;;;;;44.90;26.83;;;;;;;-0.72;100.00;95261.75;5072999;28;20953;-72
2021/12/09 00:06:42;;;;;;;42.83;26.40;;;;;;;-0.51;100.00;95295.97;5075060;28;20408;-72
2021/12/09 00:09:14;;;;;;;39.50;24.33;;;;;;;-0.47;100.00;95291.75;5093990;28;20442;-72
2021/12/09 00:11:44;;;;;;;46.33;27.10;;;;;;;-0.46;100.00;95285.50;5071871;28;20460;-72
2021/12/09 00:14:15;;;;;;;43.67;25.43;;;;;;;-0.54;100.00;95260.19;5073438;28;20978;-72
2021/12/09 00:16:42;;;;;;;40.10;23.67;;;;;;;-0.42;100.00;95276.09;5073274;28;20455;-72
2021/12/09 00:19:12;;;;;;;38.60;22.70;;;;;;;-0.48;100.00;95268.69;5073181;28;20439;-72
2021/12/09 00:21:39;;;;;;;37.10;22.63;;;;;;;-0.42;100.00;95289.09;5071410;28;20484;-73
2021/12/09 00:24:06;;;;;;;44.10;26.00;;;;;;;-0.41;100.00;95285.44;5073075;28;20433;-72
2021/12/09 00:26:32;;;;;;;48.00;26.10;;;;;;;-0.45;100.00;95279.28;5074205;28;20428;-72
2021/12/09 00:28:59;;;;;;;43.30;25.03;;;;;;;-0.50;100.00;95263.00;5072861;28;20951;-72
2021/12/09 00:31:26;;;;;;;42.47;23.60;;;;;;;-0.51;100.00;95258.88;5072219;28;20499;-72
2021/12/09 00:33:56;;;;;;;40.13;23.93;;;;;;;-0.58;100.00;95229.91;5073087;28;20843;-72
2021/12/09 00:36:34;;;;;;;46.27;23.80;;;;;;;-0.54;100.00;95249.81;5071702;28;20513;-72
2021/12/09 00:39:01;;;;;;;39.17;23.60;;;;;;;-0.69;100.00;95237.03;5088193;28;20448;-72
2021/12/09 00:41:28;;;;;;;38.37;26.77;;;;;;;-0.58;100.00;95261.81;5071421;28;20464;-72
2021/12/09 00:43:54;;;;;;;40.27;23.57;;;;;;;-0.61;100.00;95259.78;5071430;28;20432;-72
2021/12/09 00:46:21;;;;;;;41.60;25.23;;;;;;;-0.54;100.00;95262.00;5054757;28;20432;-72
2021/12/09 00:48:48;;;;;;;42.10;25.60;;;;;;;-0.98;100.00;95198.28;5071447;28;20432;-72
2021/12/09 00:51:18;;;;;;;38.53;24.80;;;;;;;-0.69;100.00;95242.25;5054605;28;20461;-72
2021/12/09 00:53:45;;;;;;;41.13;24.40;;;;;;;-0.76;100.00;95234.06;5054992;28;20424;-74
2021/12/09 00:56:13;;;;;;;49.13;25.70;;;;;;;-0.65;100.00;95256.97;5072732;28;20533;-72
2021/12/09 00:58:42;;;;;;;44.43;23.80;;;;;;;-0.42;100.00;95276.09;5054704;28;20436;-72
2021/12/09 01:01:11;;;;;;;39.70;23.53;;;;;;;-0.42;100.00;95272.75;5054385;28;20885;-72
2021/12/09 01:03:39;;;;;;;42.00;25.73;;;;;;;-0.41;100.00;95274.28;5054623;28;20444;-72
2021/12/09 01:06:07;;;;;;;48.90;27.13;;;;;;;-0.39;100.00;95264.41;5054192;28;20472;-72
2021/12/09 01:08:43;;;;;;;37.70;24.43;;;;;;;-0.29;100.00;95279.81;5055459;28;20431;-72
2021/12/09 01:11:11;;;;;;;43.33;24.20;;;;;;;-0.50;100.00;95281.19;5070837;28;20505;-74
2021/12/09 01:13:39;;;;;;;39.43;23.53;;;;;;;-0.48;100.00;95294.63;5055973;28;20928;-75
2021/12/09 01:16:07;;;;;;;44.37;26.57;;;;;;;-0.63;100.00;95274.88;5055883;28;20518;-74
2021/12/09 01:18:35;;;;;;;38.70;23.67;;;;;;;-0.47;100.00;95291.00;5054979;28;20441;-74
2021/12/09 01:21:04;;;;;;;42.10;24.97;;;;;;;-0.34;100.00;95309.22;5053981;28;20440;-75
2021/12/09 01:23:31;;;;;;;46.20;28.50;;;;;;;-0.36;100.00;95313.94;5053914;28;20433;-72
2021/12/09 01:26:02;;;;;;;41.57;25.20;;;;;;;-0.68;100.00;95275.69;5053828;28;20471;-72
2021/12/09 01:28:32;;;;;;;36.90;25.70;;;;;;;-0.40;100.00;95322.56;5054092;28;20460;-74
2021/12/09 01:31:06;;;;;;;40.60;24.20;;;;;;;-0.71;100.00;95276.25;5055634;28;20537;-75
2021/12/09 01:33:35;;;;;;;44.03;25.60;;;;;;;-0.47;100.00;95312.53;5054170;28;20473;-75
2021/12/09 01:36:04;;;;;;;44.73;24.00;;;;;;;-0.29;100.00;95331.75;5071796;28;20464;-72
2021/12/09 01:38:32;;;;;;;42.90;26.40;;;;;;;-0.21;100.00;95348.53;5070576;28;20904;-72
2021/12/09 01:41:00;;;;;;;38.43;23.73;;;;;;;-0.69;100.00;95275.97;5053452;28;20440;-72
2021/12/09 01:43:27;;;;;;;41.27;24.20;;;;;;;-0.34;100.00;95335.19;5072511;28;20931;-74
2021/12/09 01:46:07;;;;;;;40.63;24.90;;;;;;;-0.32;100.00;95329.72;5056369;28;20466;-75
2021/12/09 01:48:34;;;;;;;49.53;23.63;;;;;;;-0.52;100.00;95299.63;5055921;28;20436;-72
2021/12/09 01:51:03;;;;;;;37.43;21.10;;;;;;;-0.54;100.00;95306.91;5053672;28;20460;-74
2021/12/09 01:53:29;;;;;;;41.13;24.07;;;;;;;-0.63;100.00;95280.06;5055870;28;20436;-75
2021/12/09 01:56:02;;;;;;;38.10;24.33;;;;;;;-0.51;100.00;95306.38;5053552;28;20463;-72
2021/12/09 01:58:29;;;;;;;45.40;22.30;;;;;;;-0.56;100.00;95319.41;5055910;28;20491;-74
2021/12/09 02:00:56;;;;;;;39.27;22.90;;;;;;;-0.61;100.00;95312.47;5053225;28;20444;-75
2021/12/09 02:03:24;;;;;;;44.87;24.03;;;;;;;-0.56;100.00;95318.63;5071484;28;20489;-75
2021/12/09 02:05:51;;;;;;;42.77;25.57;;;;;;;-0.91;100.00;95277.31;5071486;28;20478;-75
2021/12/09 02:08:18;;;;;;;41.17;23.33;;;;;;;-0.37;100.00;95373.94;5053402;28;20547;-74
2021/12/09 02:10:46;;;;;;;37.17;22.93;;;;;;;-0.62;100.00;95316.09;5067409;28;20456;-72
2021/12/09 02:13:16;;;;;;;35.17;22.70;;;;;;;-0.34;100.00;95347.41;5071273;28;20483;-72
2021/12/09 02:15:42;;;;;;;40.30;23.80;;;;;;;-0.36;100.00;95333.94;5071618;28;20522;-75
2021/12/09 02:18:12;;;;;;;37.87;24.30;;;;;;;-0.42;100.00;95330.63;5069955;28;20442;-72
2021/12/09 02:20:41;;;;;;;42.90;23.10;;;;;;;-0.48;100.00;95331.75;5086859;28;20448;-72
2021/12/09 02:23:11;;;;;;;41.70;23.30;;;;;;;-0.84;100.00;95284.72;5069840;28;20460;-72
2021/12/09 02:25:44;;;;;;;37.97;21.60;;;;;;;-0.39;100.00;95342.28;5053343;28;20428;-72
2021/12/09 02:28:14;;;;;;;36.13;21.17;;;;;;;-0.43;100.00;95310.13;5071247;28;20490;-72
2021/12/09 02:30:42;;;;;;;37.80;22.30;;;;;;;-0.10;100.00;95342.13;5070031;28;20436;-75
2021/12/09 02:33:09;;;;;;;36.20;21.83;;;;;;;-0.14;100.00;95318.53;5069990;28;20510;-75
2021/12/09 02:35:38;;;;;;;39.67;25.77;;;;;;;-0.19;100.00;95317.84;5070185;28;20495;-74
2021/12/09 02:38:07;;;;;;;41.27;22.80;;;;;;;-0.26;100.00;95333.81;5054237;28;20788;-74
2021/12/09 02:40:34;;;;;;;44.10;23.17;;;;;;;-0.59;100.00;95299.19;5071337;28;20464;-72
2021/12/09 02:43:02;;;;;;;40.90;22.07;;;;;;;-0.33;100.00;95338.56;5069875;28;20483;-72
2021/12/09 02:45:29;;;;;;;38.23;22.30;;;;;;;-0.50;100.00;95300.13;5088056;28;20432;-74
2021/12/09 02:47:56;;;;;;;39.10;23.07;;;;;;;-0.54;100.00;95295.75;5055965;28;20448;-75
2021/12/09 02:50:22;;;;;;;36.40;20.00;;;;;;;-0.48;100.00;95300.59;5087850;28;20982;-72
2021/12/09 02:52:49;;;;;;;37.53;21.63;;;;;;;-0.38;100.00;95304.88;5070649;28;20452;-72
2021/12/09 02:55:16;;;;;;;35.17;20.33;;;;;;;-0.41;100.00;95308.03;5070840;28;20456;-72
2021/12/09 02:57:43;;;;;;;40.83;23.03;;;;;;;-0.14;100.00;95344.50;5056982;28;20474;-72
2021/12/09 03:00:11;;;;;;;34.17;20.07;;;;;;;-0.40;100.00;95302.59;5075008;28;20471;-71
2021/12/09 03:02:41;;;;;;;37.97;22.33;;;;;;;-0.45;100.00;95301.88;5077886;28;20486;-72
2021/12/09 03:05:08;;;;;;;33.83;20.63;;;;;;;-0.53;100.00;95305.88;5057176;28;20527;-72
2021/12/09 03:07:39;;;;;;;44.73;24.57;;;;;;;-0.41;100.00;95321.78;5057195;28;20440;-72
2021/12/09 03:10:24;;;;;;;40.60;23.00;;;;;;;-0.68;100.00;95301.63;5056563;28;20455;-72
2021/12/09 03:12:56;;;;;;;33.50;20.97;;;;;;;-0.45;100.00;95340.81;5074539;28;20459;-75
2021/12/09 03:15:24;;;;;;;46.10;22.10;;;;;;;-0.44;100.00;95337.16;5092402;28;20490;-74
2021/12/09 03:17:51;;;;;;;35.23;21.47;;;;;;;-0.50;100.00;95336.47;5073915;28;20460;-72
2021/12/09 03:20:20;;;;;;;39.73;21.63;;;;;;;-0.71;100.00;95302.19;5073254;28;20436;-72
2021/12/09 03:22:48;;;;;;;32.90;19.77;;;;;;;-0.51;100.00;95336.75;5074363;28;21359;-72
2021/12/09 03:25:17;;;;;;;32.67;21.83;;;;;;;-0.45;100.00;95338.19;5056484;28;20436;-72
2021/12/09 03:27:44;;;;;;;41.90;22.20;;;;;;;-0.30;100.00;95343.19;5073056;28;20432;-72
2021/12/09 03:30:13;;;;;;;36.03;23.23;;;;;;;-0.23;100.00;95356.59;5093277;28;20482;-74
2021/12/09 03:32:41;;;;;;;31.93;20.90;;;;;;;-0.26;100.00;95351.97;5073160;28;20514;-74
2021/12/09 03:35:09;;;;;;;41.30;22.00;;;;;;;-0.12;100.00;95358.00;5072948;28;20531;-74
2021/12/09 03:37:37;;;;;;;33.47;21.17;;;;;;;-0.26;100.00;95343.41;5072938;28;20456;-72
2021/12/09 03:40:06;;;;;;;39.33;20.70;;;;;;;-0.34;100.00;95361.16;5072837;28;21001;-75
2021/12/09 03:42:33;;;;;;;42.63;22.77;;;;;;;-0.36;100.00;95350.28;5074756;28;20455;-75
2021/12/09 03:45:01;;;;;;;40.17;21.83;;;;;;;-0.35;100.00;95341.44;5074709;28;20931;-72
2021/12/09 03:47:30;;;;;;;41.63;23.70;;;;;;;-0.67;100.00;95311.00;5073918;28;20460;-72
2021/12/09 03:50:02;;;;;;;40.03;21.27;;;;;;;-0.51;100.00;95337.50;5074602;28;20424;-75
2021/12/09 03:52:29;;;;;;;37.77;21.57;;;;;;;-0.51;100.00;95344.53;5073091;28;20478;-72
2021/12/09 03:54:57;;;;;;;35.60;20.00;;;;;;;-0.52;100.00;95340.41;5072551;28;20443;-72
2021/12/09 03:57:24;;;;;;;34.27;21.80;;;;;;;-0.75;100.00;95321.22;5074201;28;20468;-74
2021/12/09 03:59:51;;;;;;;36.47;21.57;;;;;;;-0.79;100.00;95310.63;5058560;28;20440;-72
2021/12/09 04:02:18;;;;;;;33.83;20.67;;;;;;;-0.76;100.00;95309.28;5074133;28;20448;-72
2021/12/09 04:04:45;;;;;;;36.33;21.57;;;;;;;-0.64;100.00;95323.41;5072729;28;20440;-72
2021/12/09 04:07:12;;;;;;;40.67;23.90;;;;;;;-0.59;100.00;95327.75;5074553;28;20502;-72
2021/12/09 04:09:39;;;;;;;39.43;22.40;;;;;;;-0.51;100.00;95347.13;5077717;28;20479;-72
2021/12/09 04:12:07;;;;;;;32.70;20.50;;;;;;;-0.69;100.00;95307.88;5086741;28;20452;-72
2021/12/09 04:14:34;;;;;;;35.47;19.40;;;;;;;-0.67;100.00;95313.59;5103377;28;20458;-71
2021/12/09 04:17:01;;;;;;;41.63;22.67;;;;;;;-0.62;100.00;95331.69;5067369;28;20482;-72
2021/12/09 04:19:28;;;;;;;37.40;21.50;;;;;;;-0.55;100.00;95346.13;5073931;28;20478;-73
2021/12/09 04:21:55;;;;;;;33.13;22.47;;;;;;;-0.78;100.00;95311.41;5073871;28;20514;-72
2021/12/09 04:24:22;;;;;;;36.30;21.37;;;;;;;-0.36;100.00;95354.72;5074725;28;20437;-75
2021/12/09 04:26:51;;;;;;;38.33;23.13;;;;;;;-0.18;100.00;95353.91;5074149;28;20915;-72
2021/12/09 04:29:19;;;;;;;36.50;21.33;;;;;;;-0.17;100.00;95345.06;5056465;28;20517;-72
2021/12/09 04:31:51;;;;;;;35.90;23.87;;;;;;;-0.05;100.00;95355.03;5055212;28;20486;-72
2021/12/09 04:34:20;;;;;;;41.27;23.57;;;;;;;-0.18;100.00;95355.75;5055398;28;20432;-72
2021/12/09 04:36:47;;;;;;;43.47;25.00;;;;;;;-0.26;100.00;95361.59;5071800;28;20470;-72
2021/12/09 04:39:14;;;;;;;46.37;24.07;;;;;;;-0.55;100.00;95328.72;5071706;28;20432;-72
2021/12/09 04:41:41;;;;;;;48.03;24.13;;;;;;;-0.37;100.00;95361.72;5071518;28;21058;-72
2021/12/09 04:44:08;;;;;;;41.13;25.07;;;;;;;-0.33;100.00;95367.13;5071613;28;20428;-72
2021/12/09 04:46:36;;;;;;;36.77;23.20;;;;;;;-0.36;100.00;95346.91;5088216;28;20505;-72
2021/12/09 04:49:05;;;;;;;44.63;24.27;;;;;;;-0.23;100.00;95368.81;5055132;28;20472;-72
2021/12/09 04:51:33;;;;;;;41.00;23.20;;;;;;;-0.16;100.00;95364.78;5071377;28;20963;-72
2021/12/09 04:53:59;;;;;;;45.40;24.37;;;;;;;-0.49;100.00;95332.81;5071917;28;20915;-72
2021/12/09 04:56:26;;;;;;;48.33;23.10;;;;;;;-0.45;100.00;95338.97;5072816;28;20483;-74
2021/12/09 04:58:53;;;;;;;42.93;24.30;;;;;;;-0.25;100.00;95363.91;5057555;28;20796;-75
2021/12/09 05:01:20;;;;;;;41.83;24.20;;;;;;;-0.17;100.00;95367.69;5073696;28;20456;-74
2021/12/09 05:03:48;;;;;;;38.90;22.70;;;;;;;-0.30;100.00;95348.38;5059885;28;20451;-75
2021/12/09 05:06:17;;;;;;;44.77;25.13;;;;;;;-0.09;100.00;95393.03;5094502;28;20432;-74
2021/12/09 05:08:47;;;;;;;44.67;27.73;;;;;;;-0.25;100.00;95369.09;5077322;28;20433;-71
2021/12/09 05:13:59;;;;;;;46.80;25.43;;;;;;;-0.20;100.00;95376.03;5061468;28;20436;-71
2021/12/09 05:16:27;;;;;;;51.10;27.80;;;;;;;0.04;100.00;95388.97;5056051;28;20464;-74
2021/12/09 05:18:58;;;;;;;42.70;26.83;;;;;;;-0.01;100.00;95402.78;5056096;28;20531;-74
2021/12/09 05:21:36;;;;;;;69.57;32.60;;;;;;;-0.03;100.00;95399.69;5075322;28;20515;-75
2021/12/09 05:24:08;;;;;;;42.43;27.67;;;;;;;-0.09;100.00;95400.81;5040713;28;20424;-75
2021/12/09 05:26:44;;;;;;;47.00;28.20;;;;;;;-0.25;100.00;95369.09;5057623;28;20444;-74
2021/12/09 05:29:11;;;;;;;39.97;27.13;;;;;;;-0.31;100.00;95365.78;5077267;28;20438;-75
2021/12/09 05:34:25;;;;;;;41.70;24.87;;;;;;;-0.40;100.00;95362.28;5073627;28;20424;-68
2021/12/09 05:36:52;;;;;;;39.73;24.17;;;;;;;-0.38;100.00;95391.34;5073612;28;20880;-67
2021/12/09 05:39:19;;;;;;;44.67;26.17;;;;;;;-0.36;100.00;95404.03;5044560;28;20446;-68
2021/12/09 05:41:46;;;;;;;41.80;23.37;;;;;;;-0.47;100.00;95390.41;5087065;28;20452;-68
2021/12/09 05:44:15;;;;;;;49.90;27.00;;;;;;;-0.35;100.00;95398.56;5087552;28;20428;-68
2021/12/09 05:46:45;;;;;;;53.57;29.03;;;;;;;-0.45;100.00;95393.50;5063102;28;20786;-68
2021/12/09 05:49:13;;;;;;;44.63;26.47;;;;;;;-0.36;100.00;95422.97;5037253;28;20428;-69
2021/12/09 05:51:41;;;;;;;43.27;27.60;;;;;;;-0.28;100.00;95416.38;5053781;28;20464;-69
2021/12/09 05:54:14;;;;;;;40.47;24.30;;;;;;;-0.30;100.00;95426.28;5053854;28;20485;-67
2021/12/09 05:56:40;;;;;;;40.67;23.37;;;;;;;-0.54;100.00;95391.78;5053490;28;20452;-67
2021/12/09 05:59:08;;;;;;;50.63;26.60;;;;;;;-0.40;100.00;95423.81;5053863;28;20487;-67
2021/12/09 06:01:37;;;;;;;48.60;26.53;;;;;;;-0.42;100.00;95428.50;5053250;28;21048;-68
2021/12/09 06:04:04;;;;;;;48.83;25.87;;;;;;;-0.41;100.00;95430.03;5053346;28;20944;-67
2021/12/09 06:06:32;;;;;;;44.70;25.53;;;;;;;-0.49;100.00;95407.31;5069842;28;20502;-67
2021/12/09 06:08:59;;;;;;;49.50;24.30;;;;;;;-0.45;100.00;95403.09;5053040;28;20955;-68
2021/12/09 06:11:26;;;;;;;39.83;23.87;;;;;;;-0.52;100.00;95381.91;5070025;28;20444;-67
2021/12/09 06:13:54;;;;;;;44.83;23.70;;;;;;;-0.49;100.00;95381.34;5053081;28;20451;-67
2021/12/09 06:16:21;;;;;;;45.40;25.77;;;;;;;-0.47;100.00;95382.63;5071145;28;20970;-68
2021/12/09 06:18:48;;;;;;;38.67;24.20;;;;;;;-0.48;100.00;95386.28;5071306;28;20825;-68
2021/12/09 06:21:15;;;;;;;44.37;27.60;;;;;;;-0.50;100.00;95380.59;5070381;28;20994;-68
2021/12/09 06:23:42;;;;;;;45.87;33.27;;;;;;;-0.37;100.00;95376.53;5070576;28;20436;-68
2021/12/09 06:26:09;;;;;;;42.77;26.63;;;;;;;-0.24;100.00;95401.81;5053727;28;20440;-68
2021/12/09 06:28:38;;;;;;;48.47;29.37;;;;;;;-0.44;100.00;95378.69;5053542;28;20444;-68
2021/12/09 06:31:08;;;;;;;56.63;32.77;;;;;;;-0.35;100.00;95400.38;5058835;28;20923;-68
2021/12/09 06:33:35;;;;;;;48.47;28.60;;;;;;;-0.45;100.00;95395.31;5043567;28;20440;-68
2021/12/09 06:36:02;;;;;;;38.63;25.57;;;;;;;-0.33;100.00;95412.03;5059781;28;20441;-68
2021/12/09 06:38:30;;;;;;;43.20;26.00;;;;;;;-0.12;100.00;95414.38;5060703;28;20467;-68
2021/12/09 06:40:57;;;;;;;44.97;27.90;;;;;;;-0.18;100.00;95418.09;5057797;28;20443;-68
2021/12/09 06:43:24;;;;;;;45.67;27.37;;;;;;;-0.31;100.00;95402.13;5058126;28;20559;-69
2021/12/09 06:45:54;;;;;;;41.03;28.00;;;;;;;-0.14;100.00;95426.84;5075588;28;20440;-69
2021/12/09 06:48:21;;;;;;;52.10;29.53;;;;;;;0.02;100.00;95454.19;5075531;28;20822;-69
2021/12/09 06:50:49;;;;;;;48.07;28.90;;;;;;;-0.10;100.00;95456.44;5073440;28;20580;-69
2021/12/09 06:53:16;;;;;;;44.80;27.13;;;;;;;-0.01;100.00;95468.50;5074897;28;20502;-68
2021/12/09 06:55:44;;;;;;;35.83;23.47;;;;;;;-0.07;100.00;95479.25;5056776;28;20967;-69
2021/12/09 06:58:11;;;;;;;42.70;24.53;;;;;;;-0.11;100.00;95483.47;5056771;28;20456;-69
2021/12/09 07:00:41;;;;;;;42.37;25.33;;;;;;;-0.18;100.00;95476.00;5073748;28;20489;-75
2021/12/09 07:03:12;;;;;;;38.43;24.20;;;;;;;-0.09;100.00;95497.72;5057265;28;20451;-75
2021/12/09 07:05:39;;;;;;;41.57;22.80;;;;;;;-0.04;100.00;95497.63;5075781;28;20523;-75
2021/12/09 07:08:06;;;;;;;48.57;23.60;;;;;;;-0.12;100.00;95497.50;5057422;28;20494;-75
2021/12/09 07:10:33;;;;;;;43.13;23.63;;;;;;;-0.44;100.00;95459.94;5056719;28;20458;-75
2021/12/09 07:13:00;;;;;;;42.13;26.47;;;;;;;-0.15;100.00;95503.22;5056969;28;20550;-75
2021/12/09 07:15:27;;;;;;;56.07;34.20;;;;;;;-0.08;100.00;95496.66;5056824;28;20440;-75
2021/12/09 07:17:54;;;;;;;65.10;36.20;;;;;;;-0.22;100.00;95480.19;5073719;28;20846;-75
2021/12/09 07:20:23;;;;;;;56.17;42.17;;;;;;;-0.13;100.00;95477.78;5057165;28;20459;-75
2021/12/09 07:22:51;;;;;;;56.87;32.13;;;;;;;0.01;100.00;95483.81;5057154;28;20835;-75
2021/12/09 07:25:19;;;;;;;49.97;28.03;;;;;;;0.05;100.00;95479.59;5057439;28;20806;-75
2021/12/09 07:27:46;;;;;;;46.90;34.17;;;;;;;-0.10;100.00;95452.00;5056989;28;20997;-75
2021/12/09 07:30:15;;;;;;;45.03;30.97;;;;;;;-0.08;100.00;95451.72;5057417;28;20467;-75
2021/12/09 07:32:43;;;;;;;42.60;25.30;;;;;;;-0.22;100.00;95454.22;5073457;28;20459;-74
2021/12/09 07:35:11;;;;;;;40.23;25.67;;;;;;;0.04;100.00;95477.28;5040183;28;20946;-74
2021/12/09 07:37:39;;;;;;;39.07;24.47;;;;;;;-0.15;100.00;95448.69;5056268;28;20533;-75
2021/12/09 07:40:09;;;;;;;50.30;28.00;;;;;;;0.09;100.00;95480.59;5056311;28;20444;-75
2021/12/09 07:42:37;;;;;;;41.70;26.60;;;;;;;0.08;100.00;95476.44;5073955;28;20474;-74
2021/12/09 07:45:06;;;;;;;39.43;25.50;;;;;;;-0.24;100.00;95434.78;5073085;28;20460;-75
2021/12/09 07:47:35;;;;;;;45.10;24.70;;;;;;;-0.11;100.00;95453.06;5056507;28;20460;-75
2021/12/09 07:50:04;;;;;;;42.37;25.63;;;;;;;0.05;100.00;95466.63;5056235;28;20440;-74
2021/12/09 07:52:31;;;;;;;48.70;25.97;;;;;;;-0.18;100.00;95444.81;5056104;28;20495;-75
2021/12/09 07:54:57;;;;;;;41.37;25.73;;;;;;;-0.04;100.00;95474.25;5056558;28;20480;-75
2021/12/09 07:57:24;;;;;;;46.67;23.53;;;;;;;-0.05;100.00;95446.72;5056456;28;20490;-74
2021/12/09 07:59:51;;;;;;;36.90;23.97;;;;;;;0.15;100.00;95468.31;5056465;28;20436;-75
2021/12/09 08:02:17;;;;;;;47.73;26.63;;;;;;;0.05;100.00;95445.84;5039500;28;20460;-74
2021/12/09 08:04:45;;;;;;;46.67;24.30;;;;;;;-0.08;100.00;95412.75;5039661;28;20505;-74
2021/12/09 08:07:11;;;;;;;51.33;24.67;;;;;;;-0.09;100.00;95424.19;5073765;28;20436;-74
2021/12/09 08:09:38;;;;;;;42.10;23.80;;;;;;;-0.62;100.00;95378.38;5077566;28;20554;-74
2021/12/09 08:12:05;;;;;;;40.73;25.83;;;;;;;-0.33;100.00;95435.41;5055949;28;20456;-74
2021/12/09 08:14:32;;;;;;;43.33;25.37;;;;;;;-0.40;100.00;95410.81;5089189;28;20436;-74
2021/12/09 08:17:12;;;;;;;43.47;23.97;;;;;;;-0.40;100.00;95405.63;5072213;28;20452;-74
2021/12/09 08:19:39;;;;;;;43.50;24.53;;;;;;;-0.11;100.00;95465.28;5055695;28;20493;-74
2021/12/09 08:22:08;;;;;;;40.10;21.77;;;;;;;-0.02;100.00;95448.75;5072091;28;20551;-74
2021/12/09 08:24:35;;;;;;;38.70;22.63;;;;;;;0.09;100.00;95490.22;5088958;28;20436;-75
2021/12/09 08:27:02;;;;;;;43.00;23.50;;;;;;;-0.02;100.00;95471.38;5055720;28;20428;-75
2021/12/09 08:29:28;;;;;;;44.20;25.37;;;;;;;-0.09;100.00;95455.38;5072105;28;20489;-75
2021/12/09 08:31:55;;;;;;;41.33;24.23;;;;;;;-0.14;100.00;95450.22;5055286;28;20456;-75
2021/12/09 08:34:22;;;;;;;35.43;21.67;;;;;;;-0.17;100.00;95445.59;5073172;28;20456;-75
2021/12/09 08:36:54;;;;;;;52.63;26.90;;;;;;;0.01;100.00;95462.28;5072323;28;20409;-75
2021/12/09 08:39:21;;;;;;;41.33;25.40;;;;;;;0.24;100.00;95497.78;5073160;28;20488;-75
2021/12/09 08:41:47;;;;;;;43.73;26.43;;;;;;;0.29;100.00;95493.31;5054829;28;20887;-75
2021/12/09 08:44:16;;;;;;;40.47;23.57;;;;;;;0.06;100.00;95467.38;5071730;28;20535;-75
2021/12/09 08:46:42;;;;;;;44.60;26.83;;;;;;;0.32;100.00;95502.38;5072820;28;20432;-75
2021/12/09 08:49:09;;;;;;;54.43;30.07;;;;;;;0.27;100.00;95476.47;5072382;28;20468;-75
2021/12/09 08:51:37;;;;;;;82.97;37.57;;;;;;;0.19;100.00;95464.88;5072796;28;20569;-75
2021/12/09 08:54:05;;;;;;;80.20;39.57;;;;;;;0.32;100.00;95478.22;5087627;28;20931;-75
2021/12/09 08:56:34;;;;;;;74.20;38.40;;;;;;;0.49;100.00;95497.44;5073043;28;20880;-75
2021/12/09 08:59:03;;;;;;;51.43;28.50;;;;;;;0.63;100.00;95501.94;5072964;28;20817;-75
2021/12/09 09:01:31;;;;;;;53.57;29.20;;;;;;;0.56;100.00;95500.47;5055048;28;20460;-76
2021/12/09 09:03:59;;;;;;;46.53;29.40;;;;;;;0.29;100.00;95462.13;5054517;28;20965;-75
2021/12/09 09:06:26;;;;;;;45.57;28.03;;;;;;;0.60;100.00;95508.47;5055246;28;20534;-75
2021/12/09 09:08:57;;;;;;;58.27;28.60;;;;;;;0.42;100.00;95483.28;5071976;28;20490;-75
2021/12/09 09:11:28;;;;;;;45.17;28.10;;;;;;;0.45;100.00;95499.06;5054533;28;20467;-75
2021/12/09 09:13:55;;;;;;;49.73;27.97;;;;;;;0.40;100.00;95495.75;5054789;28;20527;-75
2021/12/09 09:16:22;;;;;;;48.17;24.83;;;;;;;0.45;100.00;95491.28;5071422;28;20959;-75
2021/12/09 09:18:53;;;;;;;42.00;22.53;;;;;;;0.23;100.00;95433.88;5037840;28;20456;-75
2021/12/09 09:21:19;;;;;;;45.63;23.27;;;;;;;0.46;100.00;95473.84;5037889;28;21032;-76
2021/12/09 09:23:46;;;;;;;40.43;24.00;;;;;;;0.48;100.00;95492.53;5071197;28;20466;-75
2021/12/09 09:26:13;;;;;;;34.90;23.30;;;;;;;0.59;100.00;95523.31;5054407;28;20494;-76
2021/12/09 09:28:40;;;;;;;37.27;22.37;;;;;;;0.41;100.00;95499.94;5070841;28;20428;-76
2021/12/09 09:31:08;;;;;;;44.90;24.47;;;;;;;0.55;100.00;95529.38;5037896;28;21005;-75
2021/12/09 09:33:35;;;;;;;39.23;24.17;;;;;;;0.24;100.00;95495.19;5072232;28;20869;-75
2021/12/09 09:36:03;;;;;;;43.80;27.93;;;;;;;0.51;100.00;95523.94;5070928;28;20538;-75
2021/12/09 09:38:30;;;;;;;38.20;23.27;;;;;;;0.54;100.00;95497.41;5070498;28;20456;-75
2021/12/09 09:41:09;;;;;;;38.40;22.73;;;;;;;0.77;100.00;95521.75;5054032;28;20539;-75
2021/12/09 09:46:31;;;;;;;40.03;24.03;;;;;;;0.81;100.00;95512.34;5054129;28;20429;-75
2021/12/09 09:49:00;;;;;;;38.00;23.53;;;;;;;1.03;100.00;95510.94;5053986;28;20437;-76
2021/12/09 09:51:29;;;;;;;32.77;20.97;;;;;;;0.96;100.00;95524.31;5072107;28;20455;-76
2021/12/09 09:53:56;;;;;;;37.10;21.70;;;;;;;0.78;100.00;95496.50;5037700;28;20433;-76
2021/12/09 09:56:24;;;;;;;34.20;20.43;;;;;;;0.98;100.00;95511.03;5037625;28;20436;-76
2021/12/09 09:58:58;;;;;;;37.97;22.47;;;;;;;0.88;100.00;95520.53;5054194;28;20464;-76
2021/12/09 10:01:26;;;;;;;35.40;24.13;;;;;;;0.46;100.00;95476.44;5054075;28;21016;-76
2021/12/09 10:04:10;;;;;;;42.27;25.60;;;;;;;0.61;100.00;95491.81;5053744;28;20432;-76
2021/12/09 10:06:38;;;;;;;32.97;21.83;;;;;;;0.85;100.00;95518.50;5070568;28;20797;-76
2021/12/09 10:09:07;;;;;;;40.10;23.43;;;;;;;0.88;100.00;95540.56;5054096;28;20505;-75
2021/12/09 10:11:34;;;;;;;36.73;20.93;;;;;;;0.60;100.00;95500.69;5071843;28;20978;-76
2021/12/09 10:14:20;;;;;;;30.77;21.37;;;;;;;0.84;100.00;95511.00;5053720;28;20588;-75
2021/12/09 10:17:20;;;;;;;27.47;16.37;;;;;;;1.18;100.00;95541.91;5070710;28;20428;-75
2021/12/09 10:20:09;;;;;;;24.70;16.00;;;;;;;1.18;100.00;95542.69;5055478;28;20468;-76
2021/12/09 10:22:37;;;;;;;26.77;15.80;;;;;;;1.19;100.00;95546.06;5070592;28;20517;-76
2021/12/09 10:25:20;;;;;;;20.00;13.93;;;;;;;0.75;100.00;95477.03;5087027;28;20524;-75
2021/12/09 10:27:59;;;;;;;22.40;15.50;;;;;;;1.11;100.00;95529.28;5053942;28;20485;-75
2021/12/09 10:30:27;;;;;;;31.93;19.87;;;;;;;0.84;100.00;95508.38;5071350;28;20429;-76
2021/12/09 10:33:01;;;;;;;31.17;18.27;;;;;;;1.09;100.00;95528.81;5075159;28;20460;-75
2021/12/09 10:35:28;;;;;;;25.80;17.90;;;;;;;1.01;100.00;95513.81;5078022;28;20428;-75
2021/12/09 10:37:55;;;;;;;25.10;18.90;;;;;;;1.08;100.00;95500.47;5094499;28;20440;-74
2021/12/09 10:40:25;;;;;;;21.53;15.27;;;;;;;1.25;100.00;95521.50;5093597;28;20440;-75
2021/12/09 10:42:55;;;;;;;23.17;15.17;;;;;;;1.08;100.00;95493.44;5070863;28;20464;-75
2021/12/09 10:45:28;;;;;;;24.30;17.43;;;;;;;1.28;100.00;95525.38;5070849;28;20433;-75
2021/12/09 10:50:48;;;;;;;23.47;14.50;;;;;;;1.14;100.00;95523.50;5087131;28;20433;-75
2021/12/09 10:56:10;;;;;;;24.93;15.47;;;;;;;1.37;100.00;95534.84;5071437;28;20424;-75
2021/12/09 10:58:41;;;;;;;19.83;13.57;;;;;;;1.26;100.00;95517.06;5069811;28;20488;-75
2021/12/09 11:01:12;;;;;;;18.50;12.93;;;;;;;1.32;100.00;95536.75;5069973;28;21105;-75
2021/12/09 11:03:44;;;;;;;20.90;14.00;;;;;;;1.24;100.00;95529.59;5071176;28;20424;-75
2021/12/09 11:06:20;;;;;;;16.30;10.53;;;;;;;1.05;100.00;95514.03;5070022;28;20412;-75
2021/12/09 11:08:55;;;;;;;20.30;11.80;;;;;;;1.25;100.00;95533.75;5069664;28;20446;-74
2021/12/09 11:11:33;;;;;;;15.00;10.73;;;;;;;1.16;100.00;95523.22;5053128;28;20460;-73
2021/12/09 11:14:14;;;;;;;15.00;9.50;;;;;;;1.05;100.00;95511.41;5052943;28;20440;-73
2021/12/09 11:16:43;;;;;;;13.70;9.00;;;;;;;1.29;100.00;95537.31;5071394;28;20474;-73
2021/12/09 11:19:25;;;;;;;18.30;11.40;;;;;;;1.23;100.00;95534.03;5074494;28;20471;-73
2021/12/09 11:21:59;;;;;;;17.67;11.27;;;;;;;0.90;100.00;95483.81;5056622;28;20460;-73
2021/12/09 11:24:31;;;;;;;12.30;8.43;;;;;;;1.18;100.00;95521.09;5074659;28;20854;-73
2021/12/09 11:27:01;;;;;;;12.70;9.80;;;;;;;1.24;100.00;95540.03;5039993;28;20444;-73
2021/12/09 11:29:38;;;;;;;10.30;7.90;;;;;;;1.36;100.00;95556.72;5039709;28;20444;-73
2021/12/09 11:32:09;;;;;;;9.70;7.40;;;;;;;1.32;100.00;95555.75;5056319;28;20499;-73
2021/12/09 11:34:52;;;;;;;11.60;7.87;;;;;;;1.29;100.00;95547.72;5056016;28;20977;-73